sensor_id;sensor_type;location;lat;lon;timestamp;temperature;humidity
22635;DHT22;11484;50.858;4.384;2023-08-21T00:01:36;23.10;99.90
22635;DHT22;11484;50.858;4.384;2023-08-21T00:04:02;23.10;99.90
22635;DHT22;11484;50.858;4.384;2023-08-21T00:06:28;23.10;99.90
22635;DHT22;11484;50.858;4.384;2023-08-21T00:08:53;23.10;99.90
22635;DHT22;11484;50.858;4.384;2023-08-21T00:11:19;23.10;99.90
22635;DHT22;11484;50.858;4.384;2023-08-21T00:13:45;23.10;99.90
22635;DHT22;11484;50.858;4.384;2023-08-21T00:16:13;23.20;99.90
22635;DHT22;11484;50.858;4.384;2023-08-21T00:18:39;23.20;99.90
22635;DHT22;11484;50.858;4.384;2023-08-21T00:21:04;23.20;99.90
22635;DHT22;11484;50.858;4.384;2023-08-21T00:23:30;23.20;99.90
22635;DHT22;11484;50.858;4.384;2023-08-21T00:25:56;23.20;99.90
22635;DHT22;11484;50.858;4.384;2023-08-21T00:28:22;23.10;99.90
22635;DHT22;11484;50.858;4.384;2023-08-21T00:30:48;23.00;99.90
22635;DHT22;11484;50.858;4.384;2023-08-21T00:33:13;23.00;99.90
22635;DHT22;11484;50.858;4.384;2023-08-21T00:35:39;23.00;99.90
22635;DHT22;11484;50.858;4.384;2023-08-21T00:38:05;23.00;99.90
22635;DHT22;11484;50.858;4.384;2023-08-21T00:40:31;23.00;99.90
22635;DHT22;11484;50.858;4.384;2023-08-21T00:42:56;23.00;99.90
22635;DHT22;11484;50.858;4.384;2023-08-21T00:45:22;23.00;99.90
22635;DHT22;11484;50.858;4.384;2023-08-21T00:47:48;23.00;99.90
22635;DHT22;11484;50.858;4.384;2023-08-21T00:50:14;23.00;99.90
22635;DHT22;11484;50.858;4.384;2023-08-21T00:52:44;22.80;99.90
22635;DHT22;11484;50.858;4.384;2023-08-21T00:55:11;22.60;99.90
22635;DHT22;11484;50.858;4.384;2023-08-21T00:57:38;22.60;99.90
22635;DHT22;11484;50.858;4.384;2023-08-21T01:00:05;22.50;99.90
22635;DHT22;11484;50.858;4.384;2023-08-21T01:02:31;22.50;99.90
22635;DHT22;11484;50.858;4.384;2023-08-21T01:04:56;22.60;99.90
22635;DHT22;11484;50.858;4.384;2023-08-21T01:07:22;22.60;99.90
22635;DHT22;11484;50.858;4.384;2023-08-21T01:15:12;22.60;99.90
22635;DHT22;11484;50.858;4.384;2023-08-21T01:17:39;22.60;99.90
22635;DHT22;11484;50.858;4.384;2023-08-21T01:20:07;22.60;99.90
22635;DHT22;11484;50.858;4.384;2023-08-21T01:22:41;22.70;99.90
22635;DHT22;11484;50.858;4.384;2023-08-21T01:25:11;22.70;99.90
22635;DHT22;11484;50.858;4.384;2023-08-21T01:27:40;22.60;99.90
22635;DHT22;11484;50.858;4.384;2023-08-21T01:30:07;22.60;99.90
22635;DHT22;11484;50.858;4.384;2023-08-21T01:32:53;22.60;99.90
22635;DHT22;11484;50.858;4.384;2023-08-21T01:35:21;22.60;99.90
22635;DHT22;11484;50.858;4.384;2023-08-21T01:37:47;22.60;99.90
22635;DHT22;11484;50.858;4.384;2023-08-21T01:40:21;22.60;99.90
22635;DHT22;11484;50.858;4.384;2023-08-21T01:42:46;22.60;99.90
22635;DHT22;11484;50.858;4.384;2023-08-21T01:45:12;22.60;99.90
22635;DHT22;11484;50.858;4.384;2023-08-21T01:47:38;22.50;99.90
22635;DHT22;11484;50.858;4.384;2023-08-21T01:50:04;22.60;99.90
22635;DHT22;11484;50.858;4.384;2023-08-21T01:52:30;22.50;99.90
22635;DHT22;11484;50.858;4.384;2023-08-21T01:54:55;22.40;99.90
22635;DHT22;11484;50.858;4.384;2023-08-21T01:57:21;22.40;99.90
22635;DHT22;11484;50.858;4.384;2023-08-21T01:59:47;22.40;99.90
22635;DHT22;11484;50.858;4.384;2023-08-21T02:02:12;22.40;99.90
22635;DHT22;11484;50.858;4.384;2023-08-21T02:04:38;22.30;99.90
22635;DHT22;11484;50.858;4.384;2023-08-21T02:07:04;22.30;99.90
22635;DHT22;11484;50.858;4.384;2023-08-21T02:09:29;22.30;99.90
22635;DHT22;11484;50.858;4.384;2023-08-21T02:11:55;22.30;99.90
22635;DHT22;11484;50.858;4.384;2023-08-21T02:14:20;22.20;99.90
22635;DHT22;11484;50.858;4.384;2023-08-21T02:16:46;22.20;99.90
22635;DHT22;11484;50.858;4.384;2023-08-21T02:19:12;22.20;99.90
22635;DHT22;11484;50.858;4.384;2023-08-21T02:21:38;22.20;99.90
22635;DHT22;11484;50.858;4.384;2023-08-21T02:24:03;22.20;99.90
22635;DHT22;11484;50.858;4.384;2023-08-21T02:26:29;22.20;99.90
22635;DHT22;11484;50.858;4.384;2023-08-21T02:28:55;22.20;99.90
22635;DHT22;11484;50.858;4.384;2023-08-21T02:31:20;22.20;99.90
22635;DHT22;11484;50.858;4.384;2023-08-21T02:33:46;22.20;99.90
22635;DHT22;11484;50.858;4.384;2023-08-21T02:36:12;22.20;99.90
22635;DHT22;11484;50.858;4.384;2023-08-21T02:38:37;22.20;99.90
22635;DHT22;11484;50.858;4.384;2023-08-21T02:41:03;22.10;99.90
22635;DHT22;11484;50.858;4.384;2023-08-21T02:43:29;22.10;99.90
22635;DHT22;11484;50.858;4.384;2023-08-21T02:45:54;22.10;99.90
22635;DHT22;11484;50.858;4.384;2023-08-21T02:48:20;22.10;99.90
22635;DHT22;11484;50.858;4.384;2023-08-21T02:50:45;22.10;99.90
22635;DHT22;11484;50.858;4.384;2023-08-21T02:53:11;22.10;99.90
22635;DHT22;11484;50.858;4.384;2023-08-21T02:55:37;22.00;99.90
22635;DHT22;11484;50.858;4.384;2023-08-21T02:58:03;22.00;99.90
22635;DHT22;11484;50.858;4.384;2023-08-21T03:00:28;22.00;99.90
22635;DHT22;11484;50.858;4.384;2023-08-21T03:02:54;22.00;99.90
22635;DHT22;11484;50.858;4.384;2023-08-21T03:05:20;22.00;99.90
22635;DHT22;11484;50.858;4.384;2023-08-21T03:07:46;22.00;99.90
22635;DHT22;11484;50.858;4.384;2023-08-21T03:10:11;22.00;99.90
22635;DHT22;11484;50.858;4.384;2023-08-21T03:12:37;22.00;99.90
22635;DHT22;11484;50.858;4.384;2023-08-21T03:15:03;22.00;99.90
22635;DHT22;11484;50.858;4.384;2023-08-21T03:17:29;21.90;99.90
22635;DHT22;11484;50.858;4.384;2023-08-21T03:19:54;21.90;99.90
22635;DHT22;11484;50.858;4.384;2023-08-21T03:22:20;21.90;99.90
22635;DHT22;11484;50.858;4.384;2023-08-21T03:24:46;21.80;99.90
22635;DHT22;11484;50.858;4.384;2023-08-21T03:27:17;21.80;99.90
22635;DHT22;11484;50.858;4.384;2023-08-21T03:29:42;21.80;99.90
22635;DHT22;11484;50.858;4.384;2023-08-21T03:32:14;21.80;99.90
22635;DHT22;11484;50.858;4.384;2023-08-21T03:34:41;21.80;99.90
22635;DHT22;11484;50.858;4.384;2023-08-21T03:37:06;21.70;99.90
22635;DHT22;11484;50.858;4.384;2023-08-21T03:39:32;21.70;99.90
22635;DHT22;11484;50.858;4.384;2023-08-21T03:41:58;21.70;99.90
22635;DHT22;11484;50.858;4.384;2023-08-21T03:44:24;21.70;99.90
22635;DHT22;11484;50.858;4.384;2023-08-21T03:46:49;21.70;99.90
22635;DHT22;11484;50.858;4.384;2023-08-21T03:49:15;21.60;99.90
22635;DHT22;11484;50.858;4.384;2023-08-21T03:51:41;21.60;99.90
22635;DHT22;11484;50.858;4.384;2023-08-21T03:54:06;21.60;99.90
22635;DHT22;11484;50.858;4.384;2023-08-21T03:56:32;21.60;99.90
22635;DHT22;11484;50.858;4.384;2023-08-21T03:58:58;21.70;99.90
22635;DHT22;11484;50.858;4.384;2023-08-21T04:01:23;21.70;99.90
22635;DHT22;11484;50.858;4.384;2023-08-21T04:03:51;21.60;99.90
22635;DHT22;11484;50.858;4.384;2023-08-21T04:06:16;21.60;99.90
22635;DHT22;11484;50.858;4.384;2023-08-21T04:08:42;21.50;99.90
22635;DHT22;11484;50.858;4.384;2023-08-21T04:11:08;21.60;99.90
22635;DHT22;11484;50.858;4.384;2023-08-21T04:13:34;21.60;99.90
22635;DHT22;11484;50.858;4.384;2023-08-21T04:16:00;21.60;99.90
22635;DHT22;11484;50.858;4.384;2023-08-21T04:18:25;21.60;99.90
22635;DHT22;11484;50.858;4.384;2023-08-21T04:20:51;21.50;99.90
22635;DHT22;11484;50.858;4.384;2023-08-21T04:23:17;21.50;99.90
22635;DHT22;11484;50.858;4.384;2023-08-21T04:25:43;21.50;99.90
22635;DHT22;11484;50.858;4.384;2023-08-21T04:28:09;21.50;99.90
22635;DHT22;11484;50.858;4.384;2023-08-21T04:30:34;21.50;99.90
22635;DHT22;11484;50.858;4.384;2023-08-21T04:33:00;21.40;99.90
22635;DHT22;11484;50.858;4.384;2023-08-21T04:35:26;21.50;99.90
22635;DHT22;11484;50.858;4.384;2023-08-21T04:37:52;21.50;99.90
22635;DHT22;11484;50.858;4.384;2023-08-21T04:40:18;21.40;99.90
22635;DHT22;11484;50.858;4.384;2023-08-21T04:42:46;21.40;99.90
22635;DHT22;11484;50.858;4.384;2023-08-21T04:45:12;21.40;99.90
22635;DHT22;11484;50.858;4.384;2023-08-21T04:47:37;21.40;99.90
22635;DHT22;11484;50.858;4.384;2023-08-21T04:50:03;21.40;99.90
22635;DHT22;11484;50.858;4.384;2023-08-21T04:52:29;21.30;99.90
22635;DHT22;11484;50.858;4.384;2023-08-21T04:54:55;21.20;99.90
22635;DHT22;11484;50.858;4.384;2023-08-21T04:57:21;21.20;99.90
22635;DHT22;11484;50.858;4.384;2023-08-21T04:59:47;21.20;99.90
22635;DHT22;11484;50.858;4.384;2023-08-21T05:02:13;21.20;99.90
22635;DHT22;11484;50.858;4.384;2023-08-21T05:04:39;21.30;99.90
22635;DHT22;11484;50.858;4.384;2023-08-21T05:07:05;21.30;99.90
22635;DHT22;11484;50.858;4.384;2023-08-21T05:09:31;21.30;99.90
22635;DHT22;11484;50.858;4.384;2023-08-21T05:11:57;21.40;99.90
22635;DHT22;11484;50.858;4.384;2023-08-21T05:14:23;21.30;99.90
22635;DHT22;11484;50.858;4.384;2023-08-21T05:16:49;21.30;99.90
22635;DHT22;11484;50.858;4.384;2023-08-21T05:19:15;21.30;99.90
22635;DHT22;11484;50.858;4.384;2023-08-21T05:21:41;21.30;99.90
22635;DHT22;11484;50.858;4.384;2023-08-21T05:24:07;21.40;99.90
22635;DHT22;11484;50.858;4.384;2023-08-21T05:26:33;21.40;99.90
22635;DHT22;11484;50.858;4.384;2023-08-21T05:28:58;21.40;99.90
22635;DHT22;11484;50.858;4.384;2023-08-21T05:31:24;21.40;99.90
22635;DHT22;11484;50.858;4.384;2023-08-21T05:33:50;21.40;99.90
22635;DHT22;11484;50.858;4.384;2023-08-21T05:36:15;21.40;99.90
22635;DHT22;11484;50.858;4.384;2023-08-21T05:38:41;21.50;99.90
22635;DHT22;11484;50.858;4.384;2023-08-21T05:41:07;21.50;99.90
22635;DHT22;11484;50.858;4.384;2023-08-21T05:43:33;21.50;99.90
22635;DHT22;11484;50.858;4.384;2023-08-21T05:46:00;21.50;99.90
22635;DHT22;11484;50.858;4.384;2023-08-21T05:48:25;21.50;99.90
22635;DHT22;11484;50.858;4.384;2023-08-21T05:50:52;21.50;99.90
22635;DHT22;11484;50.858;4.384;2023-08-21T05:53:18;21.50;99.90
22635;DHT22;11484;50.858;4.384;2023-08-21T05:55:43;21.60;99.90
22635;DHT22;11484;50.858;4.384;2023-08-21T05:58:09;21.60;99.90
22635;DHT22;11484;50.858;4.384;2023-08-21T06:00:35;21.50;99.90
22635;DHT22;11484;50.858;4.384;2023-08-21T06:03:01;21.60;99.90
22635;DHT22;11484;50.858;4.384;2023-08-21T06:05:27;21.60;99.90
22635;DHT22;11484;50.858;4.384;2023-08-21T06:07:52;21.70;99.90
22635;DHT22;11484;50.858;4.384;2023-08-21T06:10:18;21.60;99.90
22635;DHT22;11484;50.858;4.384;2023-08-21T06:12:44;21.70;99.90
22635;DHT22;11484;50.858;4.384;2023-08-21T06:15:10;21.80;99.90
22635;DHT22;11484;50.858;4.384;2023-08-21T06:17:36;21.80;99.90
22635;DHT22;11484;50.858;4.384;2023-08-21T06:20:03;21.80;99.90
22635;DHT22;11484;50.858;4.384;2023-08-21T06:22:32;21.90;99.90
22635;DHT22;11484;50.858;4.384;2023-08-21T06:24:58;21.90;99.90
22635;DHT22;11484;50.858;4.384;2023-08-21T06:27:23;22.00;99.90
22635;DHT22;11484;50.858;4.384;2023-08-21T06:29:49;22.00;99.90
22635;DHT22;11484;50.858;4.384;2023-08-21T06:32:15;22.00;99.90
22635;DHT22;11484;50.858;4.384;2023-08-21T06:34:40;22.10;99.90
22635;DHT22;11484;50.858;4.384;2023-08-21T06:37:06;22.20;99.90
22635;DHT22;11484;50.858;4.384;2023-08-21T06:39:32;22.60;99.90
22635;DHT22;11484;50.858;4.384;2023-08-21T06:41:57;23.50;99.90
22635;DHT22;11484;50.858;4.384;2023-08-21T06:44:24;24.60;99.90
22635;DHT22;11484;50.858;4.384;2023-08-21T06:46:49;25.70;99.90
22635;DHT22;11484;50.858;4.384;2023-08-21T06:49:15;26.70;99.50
22635;DHT22;11484;50.858;4.384;2023-08-21T06:51:40;27.60;97.40
22635;DHT22;11484;50.858;4.384;2023-08-21T06:54:08;28.20;95.90
22635;DHT22;11484;50.858;4.384;2023-08-21T06:56:33;29.00;94.40
22635;DHT22;11484;50.858;4.384;2023-08-21T06:58:59;29.60;92.60
22635;DHT22;11484;50.858;4.384;2023-08-21T07:01:25;30.30;91.10
22635;DHT22;11484;50.858;4.384;2023-08-21T07:03:50;30.90;89.30
22635;DHT22;11484;50.858;4.384;2023-08-21T07:06:16;30.70;88.00
22635;DHT22;11484;50.858;4.384;2023-08-21T07:08:42;30.20;89.80
22635;DHT22;11484;50.858;4.384;2023-08-21T07:11:08;30.50;88.00
22635;DHT22;11484;50.858;4.384;2023-08-21T07:13:35;31.00;86.00
22635;DHT22;11484;50.858;4.384;2023-08-21T07:16:01;31.20;84.30
22635;DHT22;11484;50.858;4.384;2023-08-21T07:18:29;31.60;82.50
22635;DHT22;11484;50.858;4.384;2023-08-21T07:20:55;32.40;80.70
22635;DHT22;11484;50.858;4.384;2023-08-21T07:23:21;33.10;78.60
22635;DHT22;11484;50.858;4.384;2023-08-21T07:25:46;33.80;76.50
22635;DHT22;11484;50.858;4.384;2023-08-21T07:28:12;34.00;73.90
22635;DHT22;11484;50.858;4.384;2023-08-21T07:30:38;33.90;72.80
22635;DHT22;11484;50.858;4.384;2023-08-21T07:33:04;33.90;72.50
22635;DHT22;11484;50.858;4.384;2023-08-21T07:35:31;34.00;71.50
22635;DHT22;11484;50.858;4.384;2023-08-21T07:37:56;34.00;71.50
22635;DHT22;11484;50.858;4.384;2023-08-21T07:40:22;34.50;69.40
22635;DHT22;11484;50.858;4.384;2023-08-21T07:42:48;34.30;68.90
22635;DHT22;11484;50.858;4.384;2023-08-21T07:45:13;33.90;69.40
22635;DHT22;11484;50.858;4.384;2023-08-21T07:47:39;33.60;69.20
22635;DHT22;11484;50.858;4.384;2023-08-21T07:50:06;32.90;71.00
22635;DHT22;11484;50.858;4.384;2023-08-21T07:52:32;32.10;72.20
22635;DHT22;11484;50.858;4.384;2023-08-21T07:54:58;31.70;74.30
22635;DHT22;11484;50.858;4.384;2023-08-21T07:57:26;31.30;75.20
22635;DHT22;11484;50.858;4.384;2023-08-21T07:59:52;31.30;75.50
22635;DHT22;11484;50.858;4.384;2023-08-21T08:02:18;31.20;76.00
22635;DHT22;11484;50.858;4.384;2023-08-21T08:04:43;31.20;76.00
22635;DHT22;11484;50.858;4.384;2023-08-21T08:07:09;31.20;75.60
22635;DHT22;11484;50.858;4.384;2023-08-21T08:09:35;31.30;75.70
22635;DHT22;11484;50.858;4.384;2023-08-21T08:12:01;31.60;74.60
22635;DHT22;11484;50.858;4.384;2023-08-21T08:14:27;32.00;73.20
22635;DHT22;11484;50.858;4.384;2023-08-21T08:16:52;32.70;72.70
22635;DHT22;11484;50.858;4.384;2023-08-21T08:19:18;33.20;71.50
22635;DHT22;11484;50.858;4.384;2023-08-21T08:21:44;33.50;70.30
22635;DHT22;11484;50.858;4.384;2023-08-21T08:24:09;33.50;69.30
22635;DHT22;11484;50.858;4.384;2023-08-21T08:26:35;34.00;68.80
22635;DHT22;11484;50.858;4.384;2023-08-21T08:29:01;34.60;67.70
22635;DHT22;11484;50.858;4.384;2023-08-21T08:31:27;35.10;66.00
22635;DHT22;11484;50.858;4.384;2023-08-21T08:33:54;35.50;65.60
22635;DHT22;11484;50.858;4.384;2023-08-21T08:36:20;35.70;64.40
22635;DHT22;11484;50.858;4.384;2023-08-21T08:38:45;36.00;63.40
22635;DHT22;11484;50.858;4.384;2023-08-21T08:41:26;36.10;62.50
22635;DHT22;11484;50.858;4.384;2023-08-21T08:43:59;35.80;62.50
22635;DHT22;11484;50.858;4.384;2023-08-21T08:46:28;35.40;62.80
22635;DHT22;11484;50.858;4.384;2023-08-21T08:48:54;35.20;62.50
22635;DHT22;11484;50.858;4.384;2023-08-21T08:51:20;35.20;62.60
22635;DHT22;11484;50.858;4.384;2023-08-21T08:53:47;35.40;62.50
22635;DHT22;11484;50.858;4.384;2023-08-21T08:56:13;35.90;61.10
22635;DHT22;11484;50.858;4.384;2023-08-21T08:58:39;36.60;60.50
22635;DHT22;11484;50.858;4.384;2023-08-21T09:01:08;37.10;59.00
22635;DHT22;11484;50.858;4.384;2023-08-21T09:03:36;37.50;57.50
22635;DHT22;11484;50.858;4.384;2023-08-21T09:06:03;37.70;55.70
22635;DHT22;11484;50.858;4.384;2023-08-21T09:08:29;38.10;55.30
22635;DHT22;11484;50.858;4.384;2023-08-21T09:10:55;38.40;54.40
22635;DHT22;11484;50.858;4.384;2023-08-21T09:13:21;38.20;53.50
22635;DHT22;11484;50.858;4.384;2023-08-21T09:15:48;37.90;53.00
22635;DHT22;11484;50.858;4.384;2023-08-21T09:18:15;38.20;50.60
22635;DHT22;11484;50.858;4.384;2023-08-21T09:20:42;37.90;49.60
22635;DHT22;11484;50.858;4.384;2023-08-21T09:23:08;37.20;49.90
22635;DHT22;11484;50.858;4.384;2023-08-21T09:25:39;36.40;51.30
22635;DHT22;11484;50.858;4.384;2023-08-21T09:28:06;35.80;50.40
22635;DHT22;11484;50.858;4.384;2023-08-21T09:30:52;35.40;50.80
22635;DHT22;11484;50.858;4.384;2023-08-21T09:33:20;35.70;50.70
22635;DHT22;11484;50.858;4.384;2023-08-21T09:35:47;36.10;49.60
22635;DHT22;11484;50.858;4.384;2023-08-21T09:38:13;36.30;49.50
22635;DHT22;11484;50.858;4.384;2023-08-21T09:40:43;37.10;49.10
22635;DHT22;11484;50.858;4.384;2023-08-21T09:43:10;37.20;48.50
22635;DHT22;11484;50.858;4.384;2023-08-21T09:45:39;36.70;47.40
22635;DHT22;11484;50.858;4.384;2023-08-21T09:48:05;36.90;46.90
22635;DHT22;11484;50.858;4.384;2023-08-21T09:50:32;37.00;44.90
22635;DHT22;11484;50.858;4.384;2023-08-21T09:52:58;37.30;46.40
22635;DHT22;11484;50.858;4.384;2023-08-21T09:55:25;37.40;47.50
22635;DHT22;11484;50.858;4.384;2023-08-21T09:57:59;37.60;47.90
22635;DHT22;11484;50.858;4.384;2023-08-21T10:00:44;37.40;49.20
22635;DHT22;11484;50.858;4.384;2023-08-21T10:03:10;37.30;49.90
22635;DHT22;11484;50.858;4.384;2023-08-21T10:05:38;36.90;50.00
22635;DHT22;11484;50.858;4.384;2023-08-21T10:08:06;36.90;50.40
22635;DHT22;11484;50.858;4.384;2023-08-21T10:10:34;36.90;49.50
22635;DHT22;11484;50.858;4.384;2023-08-21T10:13:00;35.90;49.60
22635;DHT22;11484;50.858;4.384;2023-08-21T10:15:30;34.80;51.40
22635;DHT22;11484;50.858;4.384;2023-08-21T10:17:58;34.00;53.70
22635;DHT22;11484;50.858;4.384;2023-08-21T10:20:25;34.10;53.70
22635;DHT22;11484;50.858;4.384;2023-08-21T10:22:56;34.30;52.90
22635;DHT22;11484;50.858;4.384;2023-08-21T10:25:26;34.50;52.70
22635;DHT22;11484;50.858;4.384;2023-08-21T10:27:56;34.30;52.80
22635;DHT22;11484;50.858;4.384;2023-08-21T10:30:24;34.40;51.60
22635;DHT22;11484;50.858;4.384;2023-08-21T10:32:52;34.30;51.80
22635;DHT22;11484;50.858;4.384;2023-08-21T10:35:20;34.20;52.40
22635;DHT22;11484;50.858;4.384;2023-08-21T10:38:06;34.20;52.60
22635;DHT22;11484;50.858;4.384;2023-08-21T10:40:36;33.90;53.10
22635;DHT22;11484;50.858;4.384;2023-08-21T10:43:03;33.70;53.30
22635;DHT22;11484;50.858;4.384;2023-08-21T10:45:29;33.50;53.50
22635;DHT22;11484;50.858;4.384;2023-08-21T10:47:59;33.20;54.00
22635;DHT22;11484;50.858;4.384;2023-08-21T10:50:25;33.00;54.00
22635;DHT22;11484;50.858;4.384;2023-08-21T10:52:53;32.60;54.10
22635;DHT22;11484;50.858;4.384;2023-08-21T10:55:19;32.30;55.10
22635;DHT22;11484;50.858;4.384;2023-08-21T10:57:47;32.10;55.70
22635;DHT22;11484;50.858;4.384;2023-08-21T11:00:17;31.80;56.40
22635;DHT22;11484;50.858;4.384;2023-08-21T11:02:48;31.40;57.10
22635;DHT22;11484;50.858;4.384;2023-08-21T11:05:15;31.20;57.80
22635;DHT22;11484;50.858;4.384;2023-08-21T11:07:46;30.90;57.10
22635;DHT22;11484;50.858;4.384;2023-08-21T11:10:14;30.60;57.60
22635;DHT22;11484;50.858;4.384;2023-08-21T11:12:51;30.50;57.80
22635;DHT22;11484;50.858;4.384;2023-08-21T11:15:17;30.30;58.30
22635;DHT22;11484;50.858;4.384;2023-08-21T11:17:54;30.10;58.30
22635;DHT22;11484;50.858;4.384;2023-08-21T11:20:20;30.10;59.00
22635;DHT22;11484;50.858;4.384;2023-08-21T11:22:46;30.10;58.70
22635;DHT22;11484;50.858;4.384;2023-08-21T11:25:12;30.00;59.10
22635;DHT22;11484;50.858;4.384;2023-08-21T11:27:39;29.90;59.10
22635;DHT22;11484;50.858;4.384;2023-08-21T11:30:05;29.80;59.70
22635;DHT22;11484;50.858;4.384;2023-08-21T11:32:31;29.80;60.00
22635;DHT22;11484;50.858;4.384;2023-08-21T11:34:58;29.80;60.50
22635;DHT22;11484;50.858;4.384;2023-08-21T11:37:25;30.00;60.30
22635;DHT22;11484;50.858;4.384;2023-08-21T11:39:52;30.00;60.90
22635;DHT22;11484;50.858;4.384;2023-08-21T11:42:21;29.80;61.80
22635;DHT22;11484;50.858;4.384;2023-08-21T11:44:51;29.60;61.70
22635;DHT22;11484;50.858;4.384;2023-08-21T11:47:18;29.50;62.30
22635;DHT22;11484;50.858;4.384;2023-08-21T11:49:46;29.50;63.20
22635;DHT22;11484;50.858;4.384;2023-08-21T11:52:22;29.40;63.40
22635;DHT22;11484;50.858;4.384;2023-08-21T11:54:51;29.10;64.30
22635;DHT22;11484;50.858;4.384;2023-08-21T11:57:17;29.10;63.90
22635;DHT22;11484;50.858;4.384;2023-08-21T11:59:49;29.10;64.80
22635;DHT22;11484;50.858;4.384;2023-08-21T12:02:18;29.10;65.30
22635;DHT22;11484;50.858;4.384;2023-08-21T12:04:44;29.00;64.80
22635;DHT22;11484;50.858;4.384;2023-08-21T12:07:10;28.80;64.90
22635;DHT22;11484;50.858;4.384;2023-08-21T12:09:36;28.90;65.00
22635;DHT22;11484;50.858;4.384;2023-08-21T12:12:02;28.80;65.60
22635;DHT22;11484;50.858;4.384;2023-08-21T12:14:28;28.80;66.20
22635;DHT22;11484;50.858;4.384;2023-08-21T12:16:55;28.70;65.80
22635;DHT22;11484;50.858;4.384;2023-08-21T12:19:24;28.70;65.90
22635;DHT22;11484;50.858;4.384;2023-08-21T12:21:50;28.60;66.40
22635;DHT22;11484;50.858;4.384;2023-08-21T12:24:17;28.60;67.70
22635;DHT22;11484;50.858;4.384;2023-08-21T12:26:44;28.60;67.80
22635;DHT22;11484;50.858;4.384;2023-08-21T12:29:09;28.60;67.60
22635;DHT22;11484;50.858;4.384;2023-08-21T12:31:35;28.60;67.60
22635;DHT22;11484;50.858;4.384;2023-08-21T12:34:02;28.70;67.50
22635;DHT22;11484;50.858;4.384;2023-08-21T12:36:28;28.60;67.20
22635;DHT22;11484;50.858;4.384;2023-08-21T12:38:55;28.50;68.30
22635;DHT22;11484;50.858;4.384;2023-08-21T12:41:21;28.60;68.30
22635;DHT22;11484;50.858;4.384;2023-08-21T12:43:46;28.60;68.60
22635;DHT22;11484;50.858;4.384;2023-08-21T12:46:13;28.70;68.60
22635;DHT22;11484;50.858;4.384;2023-08-21T12:48:39;28.60;67.90
22635;DHT22;11484;50.858;4.384;2023-08-21T12:51:04;28.50;67.40
22635;DHT22;11484;50.858;4.384;2023-08-21T12:53:30;28.50;67.50
22635;DHT22;11484;50.858;4.384;2023-08-21T12:55:56;28.40;67.90
22635;DHT22;11484;50.858;4.384;2023-08-21T12:58:21;28.50;66.90
22635;DHT22;11484;50.858;4.384;2023-08-21T13:00:47;28.50;67.50
22635;DHT22;11484;50.858;4.384;2023-08-21T13:03:14;28.40;67.70
22635;DHT22;11484;50.858;4.384;2023-08-21T13:05:40;28.30;68.50
22635;DHT22;11484;50.858;4.384;2023-08-21T13:08:05;28.50;68.60
22635;DHT22;11484;50.858;4.384;2023-08-21T13:10:31;28.60;67.80
22635;DHT22;11484;50.858;4.384;2023-08-21T13:12:57;28.60;66.70
22635;DHT22;11484;50.858;4.384;2023-08-21T13:15:22;28.60;66.90
22635;DHT22;11484;50.858;4.384;2023-08-21T13:17:48;28.80;67.00
22635;DHT22;11484;50.858;4.384;2023-08-21T13:20:14;28.80;66.70
22635;DHT22;11484;50.858;4.384;2023-08-21T13:22:46;28.60;67.10
22635;DHT22;11484;50.858;4.384;2023-08-21T13:25:14;28.70;66.90
22635;DHT22;11484;50.858;4.384;2023-08-21T13:27:40;28.90;67.10
22635;DHT22;11484;50.858;4.384;2023-08-21T13:30:06;29.00;66.60
22635;DHT22;11484;50.858;4.384;2023-08-21T13:32:33;29.10;66.60
22635;DHT22;11484;50.858;4.384;2023-08-21T13:34:58;29.20;65.50
22635;DHT22;11484;50.858;4.384;2023-08-21T13:37:25;29.10;64.10
22635;DHT22;11484;50.858;4.384;2023-08-21T13:39:52;29.10;64.70
22635;DHT22;11484;50.858;4.384;2023-08-21T13:42:17;29.00;65.40
22635;DHT22;11484;50.858;4.384;2023-08-21T13:44:43;28.90;63.90
22635;DHT22;11484;50.858;4.384;2023-08-21T13:47:10;28.90;65.00
22635;DHT22;11484;50.858;4.384;2023-08-21T13:49:37;28.80;63.90
22635;DHT22;11484;50.858;4.384;2023-08-21T13:52:03;28.80;64.10
22635;DHT22;11484;50.858;4.384;2023-08-21T13:54:28;28.80;64.70
22635;DHT22;11484;50.858;4.384;2023-08-21T13:56:55;28.80;64.30
22635;DHT22;11484;50.858;4.384;2023-08-21T13:59:20;28.80;63.70
22635;DHT22;11484;50.858;4.384;2023-08-21T14:01:46;28.70;63.40
22635;DHT22;11484;50.858;4.384;2023-08-21T14:04:12;28.60;62.80
22635;DHT22;11484;50.858;4.384;2023-08-21T14:06:37;28.10;62.00
22635;DHT22;11484;50.858;4.384;2023-08-21T14:09:03;27.90;63.00
22635;DHT22;11484;50.858;4.384;2023-08-21T14:11:29;27.90;63.00
22635;DHT22;11484;50.858;4.384;2023-08-21T14:13:54;27.80;63.00
22635;DHT22;11484;50.858;4.384;2023-08-21T14:16:20;27.80;63.60
22635;DHT22;11484;50.858;4.384;2023-08-21T14:18:46;27.90;63.10
22635;DHT22;11484;50.858;4.384;2023-08-21T14:21:12;28.10;62.80
22635;DHT22;11484;50.858;4.384;2023-08-21T14:23:38;28.20;62.80
22635;DHT22;11484;50.858;4.384;2023-08-21T14:26:04;28.20;62.50
22635;DHT22;11484;50.858;4.384;2023-08-21T14:28:30;28.20;60.90
22635;DHT22;11484;50.858;4.384;2023-08-21T14:30:56;28.10;62.10
22635;DHT22;11484;50.858;4.384;2023-08-21T14:33:22;28.10;61.30
22635;DHT22;11484;50.858;4.384;2023-08-21T14:35:47;28.20;61.00
22635;DHT22;11484;50.858;4.384;2023-08-21T14:38:13;28.20;60.60
22635;DHT22;11484;50.858;4.384;2023-08-21T14:40:39;28.20;60.40
22635;DHT22;11484;50.858;4.384;2023-08-21T14:43:05;28.10;59.70
22635;DHT22;11484;50.858;4.384;2023-08-21T14:45:31;28.10;58.70
22635;DHT22;11484;50.858;4.384;2023-08-21T14:47:56;28.10;58.80
22635;DHT22;11484;50.858;4.384;2023-08-21T14:50:22;28.10;59.00
22635;DHT22;11484;50.858;4.384;2023-08-21T14:52:48;28.10;58.70
22635;DHT22;11484;50.858;4.384;2023-08-21T14:55:14;28.10;58.70
22635;DHT22;11484;50.858;4.384;2023-08-21T14:57:40;28.00;59.00
22635;DHT22;11484;50.858;4.384;2023-08-21T15:00:06;28.10;59.40
22635;DHT22;11484;50.858;4.384;2023-08-21T15:02:34;28.10;59.10
22635;DHT22;11484;50.858;4.384;2023-08-21T15:05:02;28.10;59.00
22635;DHT22;11484;50.858;4.384;2023-08-21T15:07:30;28.10;59.60
22635;DHT22;11484;50.858;4.384;2023-08-21T15:09:56;28.10;59.80
22635;DHT22;11484;50.858;4.384;2023-08-21T15:12:21;28.10;59.20
22635;DHT22;11484;50.858;4.384;2023-08-21T15:14:47;28.10;60.10
22635;DHT22;11484;50.858;4.384;2023-08-21T15:17:13;28.10;59.60
22635;DHT22;11484;50.858;4.384;2023-08-21T15:19:39;28.10;59.10
22635;DHT22;11484;50.858;4.384;2023-08-21T15:22:05;28.20;59.10
22635;DHT22;11484;50.858;4.384;2023-08-21T15:24:30;28.20;59.60
22635;DHT22;11484;50.858;4.384;2023-08-21T15:26:56;28.10;59.80
22635;DHT22;11484;50.858;4.384;2023-08-21T15:29:21;28.10;60.10
22635;DHT22;11484;50.858;4.384;2023-08-21T15:31:47;28.10;60.40